sensor_id;sensor_type;location;lat;lon;timestamp;temperature;humidity
13086;DHT22;6609;49.882;8.664;2022-07-06T00:00:30;20.50;38.70
13086;DHT22;6609;49.882;8.664;2022-07-06T00:03:02;20.50;38.60
13086;DHT22;6609;49.882;8.664;2022-07-06T00:05:30;20.50;38.60
13086;DHT22;6609;49.882;8.664;2022-07-06T00:07:57;20.40;38.60
13086;DHT22;6609;49.882;8.664;2022-07-06T00:10:24;20.50;38.60
13086;DHT22;6609;49.882;8.664;2022-07-06T00:12:51;20.40;38.70
13086;DHT22;6609;49.882;8.664;2022-07-06T00:15:18;20.40;39.60
13086;DHT22;6609;49.882;8.664;2022-07-06T00:17:44;20.40;40.80
13086;DHT22;6609;49.882;8.664;2022-07-06T00:20:11;20.30;40.90
13086;DHT22;6609;49.882;8.664;2022-07-06T00:22:39;20.20;41.80
13086;DHT22;6609;49.882;8.664;2022-07-06T00:25:07;20.20;41.60
13086;DHT22;6609;49.882;8.664;2022-07-06T00:27:33;20.20;41.30
13086;DHT22;6609;49.882;8.664;2022-07-06T00:30:00;20.20;40.80
13086;DHT22;6609;49.882;8.664;2022-07-06T00:32:27;20.20;40.40
13086;DHT22;6609;49.882;8.664;2022-07-06T00:34:54;20.20;40.60
13086;DHT22;6609;49.882;8.664;2022-07-06T00:37:21;20.20;40.90
13086;DHT22;6609;49.882;8.664;2022-07-06T00:39:49;20.20;40.80
13086;DHT22;6609;49.882;8.664;2022-07-06T00:42:16;20.10;40.80
13086;DHT22;6609;49.882;8.664;2022-07-06T00:44:43;20.10;41.30
13086;DHT22;6609;49.882;8.664;2022-07-06T00:47:10;20.10;41.00
13086;DHT22;6609;49.882;8.664;2022-07-06T00:49:36;20.00;40.70
13086;DHT22;6609;49.882;8.664;2022-07-06T00:52:21;19.90;40.60
13086;DHT22;6609;49.882;8.664;2022-07-06T00:54:49;19.90;40.90
13086;DHT22;6609;49.882;8.664;2022-07-06T00:57:17;19.80;41.40
13086;DHT22;6609;49.882;8.664;2022-07-06T00:59:44;19.70;41.40
13086;DHT22;6609;49.882;8.664;2022-07-06T01:02:11;19.60;41.80
13086;DHT22;6609;49.882;8.664;2022-07-06T01:04:38;19.50;42.60
13086;DHT22;6609;49.882;8.664;2022-07-06T01:07:07;19.40;42.70
13086;DHT22;6609;49.882;8.664;2022-07-06T01:09:34;19.40;43.00
13086;DHT22;6609;49.882;8.664;2022-07-06T01:12:03;19.30;43.20
13086;DHT22;6609;49.882;8.664;2022-07-06T01:14:31;19.30;43.40
13086;DHT22;6609;49.882;8.664;2022-07-06T01:16:59;19.20;43.30
13086;DHT22;6609;49.882;8.664;2022-07-06T01:19:26;19.20;43.80
13086;DHT22;6609;49.882;8.664;2022-07-06T01:21:54;19.20;44.70
13086;DHT22;6609;49.882;8.664;2022-07-06T01:24:21;19.10;45.20
13086;DHT22;6609;49.882;8.664;2022-07-06T01:26:48;19.00;45.60
13086;DHT22;6609;49.882;8.664;2022-07-06T01:29:15;19.00;46.00
13086;DHT22;6609;49.882;8.664;2022-07-06T01:31:46;18.90;46.60
13086;DHT22;6609;49.882;8.664;2022-07-06T01:34:13;18.90;47.30
13086;DHT22;6609;49.882;8.664;2022-07-06T01:36:40;18.90;46.80
13086;DHT22;6609;49.882;8.664;2022-07-06T01:39:09;18.80;47.20
13086;DHT22;6609;49.882;8.664;2022-07-06T01:41:36;18.70;48.20
13086;DHT22;6609;49.882;8.664;2022-07-06T01:44:03;18.70;49.10
13086;DHT22;6609;49.882;8.664;2022-07-06T01:46:31;18.70;49.10
13086;DHT22;6609;49.882;8.664;2022-07-06T01:48:58;18.60;49.40
13086;DHT22;6609;49.882;8.664;2022-07-06T01:51:25;18.60;49.60
13086;DHT22;6609;49.882;8.664;2022-07-06T01:53:52;18.50;49.50
13086;DHT22;6609;49.882;8.664;2022-07-06T01:56:20;18.60;49.60
13086;DHT22;6609;49.882;8.664;2022-07-06T01:58:50;18.60;50.00
13086;DHT22;6609;49.882;8.664;2022-07-06T02:01:18;18.60;49.90
13086;DHT22;6609;49.882;8.664;2022-07-06T02:03:46;18.60;49.60
13086;DHT22;6609;49.882;8.664;2022-07-06T02:06:13;18.60;49.20
13086;DHT22;6609;49.882;8.664;2022-07-06T02:08:41;18.60;49.30
13086;DHT22;6609;49.882;8.664;2022-07-06T02:11:09;18.60;49.10
13086;DHT22;6609;49.882;8.664;2022-07-06T02:13:38;18.60;49.10
13086;DHT22;6609;49.882;8.664;2022-07-06T02:16:05;18.60;49.10
13086;DHT22;6609;49.882;8.664;2022-07-06T02:18:31;18.60;49.20
13086;DHT22;6609;49.882;8.664;2022-07-06T02:20:58;18.60;49.40
13086;DHT22;6609;49.882;8.664;2022-07-06T02:23:25;18.60;49.60
13086;DHT22;6609;49.882;8.664;2022-07-06T02:25:53;18.60;49.60
13086;DHT22;6609;49.882;8.664;2022-07-06T02:28:20;18.60;49.60
13086;DHT22;6609;49.882;8.664;2022-07-06T02:30:48;18.60;49.60
13086;DHT22;6609;49.882;8.664;2022-07-06T02:33:15;18.50;49.50
13086;DHT22;6609;49.882;8.664;2022-07-06T02:35:42;18.50;49.50
13086;DHT22;6609;49.882;8.664;2022-07-06T02:38:09;18.50;49.50
13086;DHT22;6609;49.882;8.664;2022-07-06T02:40:36;18.40;49.50
13086;DHT22;6609;49.882;8.664;2022-07-06T02:43:03;18.40;49.90
13086;DHT22;6609;49.882;8.664;2022-07-06T02:45:31;18.40;50.70
13086;DHT22;6609;49.882;8.664;2022-07-06T02:47:59;18.40;49.90
13086;DHT22;6609;49.882;8.664;2022-07-06T02:50:26;18.30;50.10
13086;DHT22;6609;49.882;8.664;2022-07-06T02:52:53;18.30;50.20
13086;DHT22;6609;49.882;8.664;2022-07-06T02:55:20;18.30;50.30
13086;DHT22;6609;49.882;8.664;2022-07-06T02:57:47;18.30;50.40
13086;DHT22;6609;49.882;8.664;2022-07-06T03:00:14;18.30;50.30
13086;DHT22;6609;49.882;8.664;2022-07-06T03:02:41;18.30;51.00
13086;DHT22;6609;49.882;8.664;2022-07-06T03:05:10;18.30;50.10
13086;DHT22;6609;49.882;8.664;2022-07-06T03:07:36;18.30;50.20
13086;DHT22;6609;49.882;8.664;2022-07-06T03:10:04;18.20;49.90
13086;DHT22;6609;49.882;8.664;2022-07-06T03:12:31;18.20;50.10
13086;DHT22;6609;49.882;8.664;2022-07-06T03:14:57;18.20;50.10
13086;DHT22;6609;49.882;8.664;2022-07-06T03:17:24;18.20;50.10
13086;DHT22;6609;49.882;8.664;2022-07-06T03:19:51;18.20;50.10
13086;DHT22;6609;49.882;8.664;2022-07-06T03:22:20;18.20;50.80
13086;DHT22;6609;49.882;8.664;2022-07-06T03:24:46;18.10;50.10
13086;DHT22;6609;49.882;8.664;2022-07-06T03:29:40;18.00;50.40
13086;DHT22;6609;49.882;8.664;2022-07-06T03:32:07;18.00;50.60
13086;DHT22;6609;49.882;8.664;2022-07-06T03:34:34;17.90;50.50
13086;DHT22;6609;49.882;8.664;2022-07-06T03:37:01;17.90;50.70
13086;DHT22;6609;49.882;8.664;2022-07-06T03:39:29;17.90;50.70
13086;DHT22;6609;49.882;8.664;2022-07-06T03:41:56;17.90;50.80
13086;DHT22;6609;49.882;8.664;2022-07-06T03:44:23;17.80;50.70
13086;DHT22;6609;49.882;8.664;2022-07-06T03:46:49;17.80;50.50
13086;DHT22;6609;49.882;8.664;2022-07-06T03:49:18;17.80;51.30
13086;DHT22;6609;49.882;8.664;2022-07-06T03:51:45;17.80;51.10
13086;DHT22;6609;49.882;8.664;2022-07-06T03:54:12;17.80;50.40
13086;DHT22;6609;49.882;8.664;2022-07-06T03:56:40;17.70;50.40
13086;DHT22;6609;49.882;8.664;2022-07-06T03:59:06;17.70;50.30
13086;DHT22;6609;49.882;8.664;2022-07-06T04:01:33;17.70;50.40
13086;DHT22;6609;49.882;8.664;2022-07-06T04:06:27;17.60;50.50
13086;DHT22;6609;49.882;8.664;2022-07-06T04:08:53;17.60;50.70
13086;DHT22;6609;49.882;8.664;2022-07-06T04:11:20;17.60;51.70
13086;DHT22;6609;49.882;8.664;2022-07-06T04:13:48;17.60;52.40
13086;DHT22;6609;49.882;8.664;2022-07-06T04:16:15;17.60;53.20
13086;DHT22;6609;49.882;8.664;2022-07-06T04:18:42;17.60;53.70
13086;DHT22;6609;49.882;8.664;2022-07-06T04:21:08;17.60;53.50
13086;DHT22;6609;49.882;8.664;2022-07-06T04:23:35;17.50;53.60
13086;DHT22;6609;49.882;8.664;2022-07-06T04:26:02;17.50;53.80
13086;DHT22;6609;49.882;8.664;2022-07-06T04:28:29;17.50;54.00
13086;DHT22;6609;49.882;8.664;2022-07-06T04:30:57;17.50;54.20
13086;DHT22;6609;49.882;8.664;2022-07-06T04:33:24;17.50;54.50
13086;DHT22;6609;49.882;8.664;2022-07-06T04:35:51;17.40;54.40
13086;DHT22;6609;49.882;8.664;2022-07-06T04:38:18;17.40;54.70
13086;DHT22;6609;49.882;8.664;2022-07-06T04:40:45;17.30;55.10
13086;DHT22;6609;49.882;8.664;2022-07-06T04:43:12;17.40;55.80
13086;DHT22;6609;49.882;8.664;2022-07-06T04:45:39;17.30;55.20
13086;DHT22;6609;49.882;8.664;2022-07-06T04:48:07;17.00;54.90
13086;DHT22;6609;49.882;8.664;2022-07-06T04:50:34;17.40;56.00
13086;DHT22;6609;49.882;8.664;2022-07-06T04:53:01;17.40;55.20
13086;DHT22;6609;49.882;8.664;2022-07-06T04:55:28;17.40;55.90
13086;DHT22;6609;49.882;8.664;2022-07-06T05:00:23;17.40;55.40
13086;DHT22;6609;49.882;8.664;2022-07-06T05:02:50;17.50;55.40
13086;DHT22;6609;49.882;8.664;2022-07-06T05:05:18;17.50;56.10
13086;DHT22;6609;49.882;8.664;2022-07-06T05:07:45;17.60;55.40
13086;DHT22;6609;49.882;8.664;2022-07-06T05:10:12;17.60;55.30
13086;DHT22;6609;49.882;8.664;2022-07-06T05:12:39;17.70;55.00
13086;DHT22;6609;49.882;8.664;2022-07-06T05:15:07;17.70;56.00
13086;DHT22;6609;49.882;8.664;2022-07-06T05:17:34;17.80;55.10
13086;DHT22;6609;49.882;8.664;2022-07-06T05:20:01;17.90;54.80
13086;DHT22;6609;49.882;8.664;2022-07-06T05:22:30;17.90;55.30
13086;DHT22;6609;49.882;8.664;2022-07-06T05:24:56;18.00;54.40
13086;DHT22;6609;49.882;8.664;2022-07-06T05:27:23;18.00;54.30
13086;DHT22;6609;49.882;8.664;2022-07-06T05:29:50;18.00;55.00
13086;DHT22;6609;49.882;8.664;2022-07-06T05:32:17;18.00;55.60
13086;DHT22;6609;49.882;8.664;2022-07-06T05:34:43;18.10;54.90
13086;DHT22;6609;49.882;8.664;2022-07-06T05:37:10;18.10;54.80
13086;DHT22;6609;49.882;8.664;2022-07-06T05:39:38;18.10;53.90
13086;DHT22;6609;49.882;8.664;2022-07-06T05:42:09;18.10;54.60
13086;DHT22;6609;49.882;8.664;2022-07-06T05:44:36;18.20;54.50
13086;DHT22;6609;49.882;8.664;2022-07-06T05:47:03;18.30;55.30
13086;DHT22;6609;49.882;8.664;2022-07-06T05:49:47;18.40;53.50
13086;DHT22;6609;49.882;8.664;2022-07-06T05:52:32;18.50;53.40
13086;DHT22;6609;49.882;8.664;2022-07-06T05:55:00;18.60;53.10
13086;DHT22;6609;49.882;8.664;2022-07-06T05:57:27;18.70;53.00
13086;DHT22;6609;49.882;8.664;2022-07-06T05:59:54;18.70;53.50
13086;DHT22;6609;49.882;8.664;2022-07-06T06:02:21;18.80;52.40
13086;DHT22;6609;49.882;8.664;2022-07-06T06:04:47;18.90;52.00
13086;DHT22;6609;49.882;8.664;2022-07-06T06:07:14;18.90;51.40
13086;DHT22;6609;49.882;8.664;2022-07-06T06:09:41;19.00;51.30
13086;DHT22;6609;49.882;8.664;2022-07-06T06:12:09;19.00;51.90
13086;DHT22;6609;49.882;8.664;2022-07-06T06:14:36;19.00;51.10
13086;DHT22;6609;49.882;8.664;2022-07-06T06:17:03;19.00;51.80
13086;DHT22;6609;49.882;8.664;2022-07-06T06:19:34;19.10;51.10
13086;DHT22;6609;49.882;8.664;2022-07-06T06:22:02;19.30;51.30
13086;DHT22;6609;49.882;8.664;2022-07-06T06:24:29;19.30;51.90
13086;DHT22;6609;49.882;8.664;2022-07-06T06:26:56;19.30;51.20
13086;DHT22;6609;49.882;8.664;2022-07-06T06:29:25;19.30;50.30
13086;DHT22;6609;49.882;8.664;2022-07-06T06:31:52;19.30;51.00
13086;DHT22;6609;49.882;8.664;2022-07-06T06:34:19;19.30;50.30
13086;DHT22;6609;49.882;8.664;2022-07-06T06:36:46;19.30;50.10
13086;DHT22;6609;49.882;8.664;2022-07-06T06:39:13;19.40;50.40
13086;DHT22;6609;49.882;8.664;2022-07-06T06:41:39;19.40;50.40
13086;DHT22;6609;49.882;8.664;2022-07-06T06:46:34;19.40;50.40
13086;DHT22;6609;49.882;8.664;2022-07-06T06:49:01;19.50;50.50
13086;DHT22;6609;49.882;8.664;2022-07-06T06:51:29;19.60;49.30
13086;DHT22;6609;49.882;8.664;2022-07-06T06:53:55;19.50;49.90
13086;DHT22;6609;49.882;8.664;2022-07-06T06:56:22;19.70;49.50
13086;DHT22;6609;49.882;8.664;2022-07-06T06:58:49;19.80;48.80
13086;DHT22;6609;49.882;8.664;2022-07-06T07:01:16;19.90;48.50
13086;DHT22;6609;49.882;8.664;2022-07-06T07:03:44;19.90;48.20
13086;DHT22;6609;49.882;8.664;2022-07-06T07:06:11;20.00;48.30
13086;DHT22;6609;49.882;8.664;2022-07-06T07:11:04;20.10;47.60
13086;DHT22;6609;49.882;8.664;2022-07-06T07:15:59;20.20;47.00
13086;DHT22;6609;49.882;8.664;2022-07-06T07:18:25;20.30;47.30
13086;DHT22;6609;49.882;8.664;2022-07-06T07:20:54;20.50;48.20
13086;DHT22;6609;49.882;8.664;2022-07-06T07:23:20;20.30;47.30
13086;DHT22;6609;49.882;8.664;2022-07-06T07:25:47;20.40;47.10
13086;DHT22;6609;49.882;8.664;2022-07-06T07:28:14;20.40;46.80
13086;DHT22;6609;49.882;8.664;2022-07-06T07:30:40;20.40;47.10
13086;DHT22;6609;49.882;8.664;2022-07-06T07:33:07;20.30;47.00
13086;DHT22;6609;49.882;8.664;2022-07-06T07:35:34;20.30;46.80
13086;DHT22;6609;49.882;8.664;2022-07-06T07:38:02;20.30;47.00
13086;DHT22;6609;49.882;8.664;2022-07-06T07:40:29;20.30;47.00
13086;DHT22;6609;49.882;8.664;2022-07-06T07:45:23;20.50;46.10
13086;DHT22;6609;49.882;8.664;2022-07-06T07:47:50;20.50;46.70
13086;DHT22;6609;49.882;8.664;2022-07-06T07:50:17;20.60;46.30
13086;DHT22;6609;49.882;8.664;2022-07-06T07:52:44;20.70;46.30
13086;DHT22;6609;49.882;8.664;2022-07-06T07:55:12;20.70;45.70
13086;DHT22;6609;49.882;8.664;2022-07-06T07:57:39;20.70;45.50
13086;DHT22;6609;49.882;8.664;2022-07-06T08:00:07;20.80;44.60
13086;DHT22;6609;49.882;8.664;2022-07-06T08:02:34;20.90;44.10
13086;DHT22;6609;49.882;8.664;2022-07-06T08:05:01;20.90;43.20
13086;DHT22;6609;49.882;8.664;2022-07-06T08:07:28;20.80;43.20
13086;DHT22;6609;49.882;8.664;2022-07-06T08:12:24;20.70;43.50
13086;DHT22;6609;49.882;8.664;2022-07-06T08:14:51;20.70;44.30
13086;DHT22;6609;49.882;8.664;2022-07-06T08:17:18;20.70;43.70
13086;DHT22;6609;49.882;8.664;2022-07-06T08:19:45;20.70;43.70
13086;DHT22;6609;49.882;8.664;2022-07-06T08:24:38;20.70;44.00
13086;DHT22;6609;49.882;8.664;2022-07-06T08:27:05;20.70;44.00
13086;DHT22;6609;49.882;8.664;2022-07-06T08:29:33;20.80;44.10
13086;DHT22;6609;49.882;8.664;2022-07-06T08:32:00;20.80;43.80
13086;DHT22;6609;49.882;8.664;2022-07-06T08:34:27;20.80;43.90
13086;DHT22;6609;49.882;8.664;2022-07-06T08:36:54;20.90;43.70
13086;DHT22;6609;49.882;8.664;2022-07-06T08:39:20;21.00;42.80
13086;DHT22;6609;49.882;8.664;2022-07-06T08:41:48;21.00;43.20
13086;DHT22;6609;49.882;8.664;2022-07-06T08:44:15;21.10;43.50
13086;DHT22;6609;49.882;8.664;2022-07-06T08:46:44;21.40;42.50
13086;DHT22;6609;49.882;8.664;2022-07-06T08:49:14;21.60;41.50
13086;DHT22;6609;49.882;8.664;2022-07-06T08:51:41;21.90;40.80
13086;DHT22;6609;49.882;8.664;2022-07-06T08:54:10;22.20;39.90
13086;DHT22;6609;49.882;8.664;2022-07-06T08:56:37;22.40;39.30
13086;DHT22;6609;49.882;8.664;2022-07-06T08:59:04;22.40;37.20
13086;DHT22;6609;49.882;8.664;2022-07-06T09:01:35;22.40;37.20
13086;DHT22;6609;49.882;8.664;2022-07-06T09:04:05;22.30;37.60
13086;DHT22;6609;49.882;8.664;2022-07-06T09:06:33;22.40;37.00
13086;DHT22;6609;49.882;8.664;2022-07-06T09:09:05;22.40;37.70
13086;DHT22;6609;49.882;8.664;2022-07-06T09:11:32;22.50;38.00
13086;DHT22;6609;49.882;8.664;2022-07-06T09:13:59;22.70;36.30
13086;DHT22;6609;49.882;8.664;2022-07-06T09:16:27;22.70;35.50
13086;DHT22;6609;49.882;8.664;2022-07-06T09:18:55;22.90;36.40
13086;DHT22;6609;49.882;8.664;2022-07-06T09:21:24;23.10;36.20
13086;DHT22;6609;49.882;8.664;2022-07-06T09:23:55;23.20;35.70
13086;DHT22;6609;49.882;8.664;2022-07-06T09:26:22;23.50;36.10
13086;DHT22;6609;49.882;8.664;2022-07-06T09:28:49;23.80;36.30
13086;DHT22;6609;49.882;8.664;2022-07-06T09:31:16;24.10;35.70
13086;DHT22;6609;49.882;8.664;2022-07-06T09:33:53;24.50;34.20
13086;DHT22;6609;49.882;8.664;2022-07-06T09:36:37;25.10;33.00
13086;DHT22;6609;49.882;8.664;2022-07-06T09:39:18;25.50;31.50
13086;DHT22;6609;49.882;8.664;2022-07-06T09:41:44;25.20;32.20
13086;DHT22;6609;49.882;8.664;2022-07-06T09:44:11;24.80;32.40
13086;DHT22;6609;49.882;8.664;2022-07-06T09:46:40;24.70;33.00
13086;DHT22;6609;49.882;8.664;2022-07-06T09:49:07;24.30;33.40
13086;DHT22;6609;49.882;8.664;2022-07-06T09:51:37;24.50;31.50
13086;DHT22;6609;49.882;8.664;2022-07-06T09:54:06;24.70;31.00
13086;DHT22;6609;49.882;8.664;2022-07-06T09:56:37;24.80;30.80
13086;DHT22;6609;49.882;8.664;2022-07-06T09:59:08;25.10;30.80
13086;DHT22;6609;49.882;8.664;2022-07-06T10:01:35;24.90;31.70
13086;DHT22;6609;49.882;8.664;2022-07-06T10:04:02;24.50;31.30
13086;DHT22;6609;49.882;8.664;2022-07-06T10:06:29;24.20;31.60
13086;DHT22;6609;49.882;8.664;2022-07-06T10:08:58;24.40;32.20
13086;DHT22;6609;49.882;8.664;2022-07-06T10:11:26;25.20;30.90
13086;DHT22;6609;49.882;8.664;2022-07-06T10:13:55;26.30;30.00
13086;DHT22;6609;49.882;8.664;2022-07-06T10:16:22;27.20;28.60
13086;DHT22;6609;49.882;8.664;2022-07-06T10:18:50;27.40;28.00
13086;DHT22;6609;49.882;8.664;2022-07-06T10:21:19;27.20;26.60
13086;DHT22;6609;49.882;8.664;2022-07-06T10:23:47;27.50;26.20
13086;DHT22;6609;49.882;8.664;2022-07-06T10:26:16;28.30;26.20
13086;DHT22;6609;49.882;8.664;2022-07-06T10:28:44;28.90;23.70
13086;DHT22;6609;49.882;8.664;2022-07-06T10:31:13;29.40;24.00
13086;DHT22;6609;49.882;8.664;2022-07-06T10:33:41;30.40;23.20
13086;DHT22;6609;49.882;8.664;2022-07-06T10:36:09;29.70;23.20
13086;DHT22;6609;49.882;8.664;2022-07-06T10:38:36;29.60;23.10
13086;DHT22;6609;49.882;8.664;2022-07-06T10:41:04;29.40;21.80
13086;DHT22;6609;49.882;8.664;2022-07-06T10:43:34;29.20;21.80
13086;DHT22;6609;49.882;8.664;2022-07-06T10:46:10;29.60;21.00
13086;DHT22;6609;49.882;8.664;2022-07-06T10:48:38;30.30;20.80
13086;DHT22;6609;49.882;8.664;2022-07-06T10:51:05;30.70;18.10
13086;DHT22;6609;49.882;8.664;2022-07-06T10:53:34;30.80;19.60
13086;DHT22;6609;49.882;8.664;2022-07-06T10:56:03;31.20;19.00
13086;DHT22;6609;49.882;8.664;2022-07-06T10:58:48;31.70;18.10
13086;DHT22;6609;49.882;8.664;2022-07-06T11:01:17;32.10;15.80
13086;DHT22;6609;49.882;8.664;2022-07-06T11:03:45;32.40;17.00
13086;DHT22;6609;49.882;8.664;2022-07-06T11:06:14;32.50;15.70
13086;DHT22;6609;49.882;8.664;2022-07-06T11:08:50;32.60;16.10
13086;DHT22;6609;49.882;8.664;2022-07-06T11:11:18;32.80;14.60
13086;DHT22;6609;49.882;8.664;2022-07-06T11:13:58;32.80;14.20
13086;DHT22;6609;49.882;8.664;2022-07-06T11:16:28;32.80;14.70
13086;DHT22;6609;49.882;8.664;2022-07-06T11:19:05;32.80;15.50
13086;DHT22;6609;49.882;8.664;2022-07-06T11:21:38;32.90;15.20
13086;DHT22;6609;49.882;8.664;2022-07-06T11:24:06;33.00;13.90
13086;DHT22;6609;49.882;8.664;2022-07-06T11:26:34;33.10;13.40
13086;DHT22;6609;49.882;8.664;2022-07-06T11:29:04;33.30;13.70
13086;DHT22;6609;49.882;8.664;2022-07-06T11:31:34;33.30;13.80
13086;DHT22;6609;49.882;8.664;2022-07-06T11:34:02;33.30;12.70
13086;DHT22;6609;49.882;8.664;2022-07-06T11:36:30;33.20;12.80
13086;DHT22;6609;49.882;8.664;2022-07-06T11:38:57;33.20;13.00
13086;DHT22;6609;49.882;8.664;2022-07-06T11:41:24;33.30;12.90
13086;DHT22;6609;49.882;8.664;2022-07-06T11:43:51;33.40;13.00
13086;DHT22;6609;49.882;8.664;2022-07-06T11:46:24;33.50;13.10
13086;DHT22;6609;49.882;8.664;2022-07-06T11:48:53;33.70;13.50
13086;DHT22;6609;49.882;8.664;2022-07-06T11:51:21;33.80;12.60
13086;DHT22;6609;49.882;8.664;2022-07-06T11:53:49;33.40;12.10
13086;DHT22;6609;49.882;8.664;2022-07-06T11:56:16;33.10;13.60
13086;DHT22;6609;49.882;8.664;2022-07-06T11:58:45;33.10;14.00
13086;DHT22;6609;49.882;8.664;2022-07-06T12:01:13;32.80;13.90
13086;DHT22;6609;49.882;8.664;2022-07-06T12:03:42;32.30;12.90
13086;DHT22;6609;49.882;8.664;2022-07-06T12:06:14;31.50;12.70
13086;DHT22;6609;49.882;8.664;2022-07-06T12:08:43;30.80;15.00
13086;DHT22;6609;49.882;8.664;2022-07-06T12:11:10;30.60;16.30
13086;DHT22;6609;49.882;8.664;2022-07-06T12:13:42;30.40;16.00
13086;DHT22;6609;49.882;8.664;2022-07-06T12:16:10;30.30;16.40
13086;DHT22;6609;49.882;8.664;2022-07-06T12:18:37;30.30;17.40
13086;DHT22;6609;49.882;8.664;2022-07-06T12:21:08;29.90;16.70
13086;DHT22;6609;49.882;8.664;2022-07-06T12:23:39;29.60;15.90
13086;DHT22;6609;49.882;8.664;2022-07-06T12:26:06;29.40;17.20
13086;DHT22;6609;49.882;8.664;2022-07-06T12:28:34;29.30;16.80
13086;DHT22;6609;49.882;8.664;2022-07-06T12:31:00;29.20;17.40
13086;DHT22;6609;49.882;8.664;2022-07-06T12:33:27;29.20;18.00
13086;DHT22;6609;49.882;8.664;2022-07-06T12:35:54;29.10;18.70
13086;DHT22;6609;49.882;8.664;2022-07-06T12:38:26;29.00;19.20
13086;DHT22;6609;49.882;8.664;2022-07-06T12:40:54;28.90;17.00
13086;DHT22;6609;49.882;8.664;2022-07-06T12:43:38;28.60;17.70
13086;DHT22;6609;49.882;8.664;2022-07-06T12:46:27;28.50;18.40
13086;DHT22;6609;49.882;8.664;2022-07-06T12:48:55;28.60;18.80
13086;DHT22;6609;49.882;8.664;2022-07-06T12:51:22;28.60;18.10
13086;DHT22;6609;49.882;8.664;2022-07-06T12:53:50;28.60;18.40
13086;DHT22;6609;49.882;8.664;2022-07-06T12:56:18;28.50;19.00
13086;DHT22;6609;49.882;8.664;2022-07-06T12:58:57;28.50;18.40
13086;DHT22;6609;49.882;8.664;2022-07-06T13:01:24;28.40;18.60
13086;DHT22;6609;49.882;8.664;2022-07-06T13:03:55;28.30;18.30
13086;DHT22;6609;49.882;8.664;2022-07-06T13:06:33;28.20;18.50
13086;DHT22;6609;49.882;8.664;2022-07-06T13:09:01;27.90;19.90
13086;DHT22;6609;49.882;8.664;2022-07-06T13:11:27;28.10;19.30
13086;DHT22;6609;49.882;8.664;2022-07-06T13:13:54;27.70;18.40
13086;DHT22;6609;49.882;8.664;2022-07-06T13:16:21;27.60;19.50
13086;DHT22;6609;49.882;8.664;2022-07-06T13:18:49;27.60;18.90
13086;DHT22;6609;49.882;8.664;2022-07-06T13:21:16;27.50;19.90
13086;DHT22;6609;49.882;8.664;2022-07-06T13:23:43;27.50;19.70
13086;DHT22;6609;49.882;8.664;2022-07-06T13:26:11;27.60;20.00
13086;DHT22;6609;49.882;8.664;2022-07-06T13:28:38;27.50;20.10
13086;DHT22;6609;49.882;8.664;2022-07-06T13:31:05;27.40;20.50
13086;DHT22;6609;49.882;8.664;2022-07-06T13:33:31;27.40;21.00
13086;DHT22;6609;49.882;8.664;2022-07-06T13:35:58;27.40;21.00
13086;DHT22;6609;49.882;8.664;2022-07-06T13:38:26;27.40;21.40
13086;DHT22;6609;49.882;8.664;2022-07-06T13:40:52;27.40;21.60
13086;DHT22;6609;49.882;8.664;2022-07-06T13:43:20;27.40;21.10
13086;DHT22;6609;49.882;8.664;2022-07-06T13:45:47;27.30;21.10
13086;DHT22;6609;49.882;8.664;2022-07-06T13:48:14;27.20;21.50
13086;DHT22;6609;49.882;8.664;2022-07-06T13:50:41;27.00;20.40
13086;DHT22;6609;49.882;8.664;2022-07-06T13:53:08;26.90;20.90
13086;DHT22;6609;49.882;8.664;2022-07-06T13:55:35;26.80;21.60
13086;DHT22;6609;49.882;8.664;2022-07-06T13:58:02;26.90;20.80
13086;DHT22;6609;49.882;8.664;2022-07-06T14:00:30;26.90;20.90
13086;DHT22;6609;49.882;8.664;2022-07-06T14:02:58;26.90;21.50
13086;DHT22;6609;49.882;8.664;2022-07-06T14:05:24;26.80;21.20
13086;DHT22;6609;49.882;8.664;2022-07-06T14:07:51;26.70;19.00
13086;DHT22;6609;49.882;8.664;2022-07-06T14:10:18;26.70;19.50
13086;DHT22;6609;49.882;8.664;2022-07-06T14:12:46;26.60;20.30
13086;DHT22;6609;49.882;8.664;2022-07-06T14:15:12;26.50;20.30
13086;DHT22;6609;49.882;8.664;2022-07-06T14:17:41;26.50;20.10
13086;DHT22;6609;49.882;8.664;2022-07-06T14:20:08;26.50;20.40
13086;DHT22;6609;49.882;8.664;2022-07-06T14:22:36;26.60;20.80
13086;DHT22;6609;49.882;8.664;2022-07-06T14:25:04;26.60;21.20
13086;DHT22;6609;49.882;8.664;2022-07-06T14:27:32;26.40;20.80
13086;DHT22;6609;49.882;8.664;2022-07-06T14:29:59;26.80;21.50
13086;DHT22;6609;49.882;8.664;2022-07-06T14:32:25;26.40;21.60
13086;DHT22;6609;49.882;8.664;2022-07-06T14:34:54;26.30;21.60
13086;DHT22;6609;49.882;8.664;2022-07-06T14:37:20;26.20;21.00
13086;DHT22;6609;49.882;8.664;2022-07-06T14:39:47;26.20;21.50
13086;DHT22;6609;49.882;8.664;2022-07-06T14:42:14;26.00;21.20
13086;DHT22;6609;49.882;8.664;2022-07-06T14:44:41;27.20;22.10
13086;DHT22;6609;49.882;8.664;2022-07-06T14:47:08;26.00;22.30
13086;DHT22;6609;49.882;8.664;2022-07-06T14:49:35;25.90;22.40
13086;DHT22;6609;49.882;8.664;2022-07-06T14:52:04;25.90;21.80
13086;DHT22;6609;49.882;8.664;2022-07-06T14:54:30;25.90;22.30
13086;DHT22;6609;49.882;8.664;2022-07-06T14:56:57;26.00;22.80
13086;DHT22;6609;49.882;8.664;2022-07-06T14:59:24;26.00;22.50
13086;DHT22;6609;49.882;8.664;2022-07-06T15:01:51;25.90;22.20
13086;DHT22;6609;49.882;8.664;2022-07-06T15:04:18;25.80;22.80
13086;DHT22;6609;49.882;8.664;2022-07-06T15:06:44;25.70;22.30
13086;DHT22;6609;49.882;8.664;2022-07-06T15:09:13;25.60;22.00
13086;DHT22;6609;49.882;8.664;2022-07-06T15:11:39;25.40;22.60
13086;DHT22;6609;49.882;8.664;2022-07-06T15:14:06;25.50;23.00
13086;DHT22;6609;49.882;8.664;2022-07-06T15:16:33;25.20;23.10
13086;DHT22;6609;49.882;8.664;2022-07-06T15:19:00;25.00;23.20
13086;DHT22;6609;49.882;8.664;2022-07-06T15:21:26;24.90;23.70
13086;DHT22;6609;49.882;8.664;2022-07-06T15:23:53;24.80;23.70
13086;DHT22;6609;49.882;8.664;2022-07-06T15:26:21;24.80;23.90
13086;DHT22;6609;49.882;8.664;2022-07-06T15:28:50;24.70;23.70
13086;DHT22;6609;49.882;8.664;2022-07-06T15:31:17;24.70;23.80
13086;DHT22;6609;49.882;8.664;2022-07-06T15:33:43;24.70;23.50
13086;DHT22;6609;49.882;8.664;2022-07-06T15:36:10;24.60;24.30
13086;DHT22;6609;49.882;8.664;2022-07-06T15:38:37;24.60;23.60
13086;DHT22;6609;49.882;8.664;2022-07-06T15:41:05;24.90;23.30
13086;DHT22;6609;49.882;8.664;2022-07-06T15:43:33;24.50;23.10
13086;DHT22;6609;49.882;8.664;2022-07-06T15:46:01;24.50;23.60
13086;DHT22;6609;49.882;8.664;2022-07-06T15:48:30;24.50;23.30
13086;DHT22;6609;49.882;8.664;2022-07-06T15:50:58;24.50;23.20
13086;DHT22;6609;49.882;8.664;2022-07-06T15:53:25;24.50;23.60
13086;DHT22;6609;49.882;8.664;2022-07-06T15:55:52;24.50;24.10
13086;DHT22;6609;49.882;8.664;2022-07-06T15:58:19;24.40;24.50
13086;DHT22;6609;49.882;8.664;2022-07-06T16:00:47;24.30;24.80
13086;DHT22;6609;49.882;8.664;2022-07-06T16:03:14;24.30;24.60
13086;DHT22;6609;49.882;8.664;2022-07-06T16:05:41;24.30;25.00
13086;DHT22;6609;49.882;8.664;2022-07-06T16:08:08;24.20;24.10
13086;DHT22;6609;49.882;8.664;2022-07-06T16:10:34;24.10;24.20